Time;durP1;ratioP1;P1;durP2;ratioP2;P2;SDS_P1;SDS_P2;PMS_P1;PMS_P2;Temp;Humidity;BMP_temperature;BMP_pressure;BME280_temperature;BME280_humidity;BME280_pressure;Samples;Min_cycle;Max_cycle;Signal;HPM_P1;HPM_P2
2021/03/30 00:00:54;;;;;;;23.17;14.60;;;10.80;62.20;;;;;;4972716;28;20047;-72
2021/03/30 00:03:20;;;;;;;21.27;13.97;;;10.70;62.30;;;;;;4971414;28;20046;-74
2021/03/30 00:05:46;;;;;;;23.90;14.97;;;10.60;62.30;;;;;;4972652;28;20475;-72
2021/03/30 00:08:13;;;;;;;22.80;14.27;;;10.50;62.80;;;;;;4971358;28;20399;-74
2021/03/30 00:10:44;;;;;;;20.37;14.07;;;10.50;62.70;;;;;;4970536;28;20035;-73
2021/03/30 00:13:10;;;;;;;22.13;15.23;;;10.40;63.10;;;;;;4973554;28;20065;-73
2021/03/30 00:15:36;;;;;;;23.60;14.47;;;10.30;63.40;;;;;;4984686;28;20479;-73
2021/03/30 00:18:02;;;;;;;20.93;13.17;;;10.30;63.40;;;;;;4975698;28;20043;-72
2021/03/30 00:20:27;;;;;;;23.17;13.90;;;10.20;63.30;;;;;;4970307;28;20039;-73
2021/03/30 00:22:53;;;;;;;24.87;14.20;;;10.10;63.20;;;;;;4971001;28;20426;-73
2021/03/30 00:25:19;;;;;;;24.10;14.93;;;10.00;63.70;;;;;;4990167;28;20125;-78
2021/03/30 00:27:44;;;;;;;24.13;15.37;;;10.00;63.90;;;;;;4991515;28;20116;-73
2021/03/30 00:30:11;;;;;;;24.20;14.73;;;9.90;64.30;;;;;;4991759;28;20038;-73
2021/03/30 00:32:37;;;;;;;22.63;14.00;;;9.90;64.60;;;;;;4989010;28;20073;-73
2021/03/30 00:35:04;;;;;;;23.00;14.07;;;9.90;64.90;;;;;;4990645;28;20141;-73
2021/03/30 00:37:30;;;;;;;26.73;14.53;;;9.90;64.90;;;;;;4990396;28;20052;-74
2021/03/30 00:39:56;;;;;;;21.43;13.70;;;9.80;65.00;;;;;;4991056;28;20129;-73
2021/03/30 00:42:24;;;;;;;23.00;13.87;;;9.80;65.30;;;;;;4978215;28;20030;-79
2021/03/30 00:44:56;;;;;;;20.13;12.73;;;9.70;65.20;;;;;;4971817;28;20110;-73
2021/03/30 00:47:22;;;;;;;21.33;13.25;;;9.80;65.60;;;;;;4970526;28;20042;-78
2021/03/30 00:49:51;;;;;;;21.30;13.33;;;9.80;65.50;;;;;;4981951;28;20085;-74
2021/03/30 00:52:19;;;;;;;18.50;12.80;;;9.80;65.40;;;;;;4989181;28;20041;-74
2021/03/30 00:54:45;;;;;;;21.07;12.93;;;9.70;65.50;;;;;;4989217;28;20711;-73
2021/03/30 00:57:12;;;;;;;21.17;13.07;;;9.70;65.90;;;;;;4991062;28;20042;-75
2021/03/30 00:59:38;;;;;;;20.23;12.40;;;9.70;66.30;;;;;;4978598;28;20035;-73
2021/03/30 01:02:04;;;;;;;21.20;12.97;;;9.60;66.10;;;;;;4986923;28;20576;-73
2021/03/30 01:04:29;;;;;;;21.93;13.03;;;9.60;66.30;;;;;;4990432;28;20029;-73
2021/03/30 01:06:56;;;;;;;19.30;11.93;;;9.50;66.40;;;;;;4989054;28;20027;-74
2021/03/30 01:09:28;;;;;;;20.97;12.87;;;9.50;66.60;;;;;;4990386;28;20030;-73
2021/03/30 01:12:32;;;;;;;18.58;12.30;;;9.50;66.30;;;;;;4988992;28;20141;-73
2021/03/30 01:15:17;;;;;;;22.17;12.23;;;9.40;66.20;;;;;;4930380;29;20051;-74
2021/03/30 01:18:13;;;;;;;20.77;11.37;;;9.40;66.30;;;;;;4986487;28;20498;-73
2021/03/30 01:21:16;;;;;;;21.00;12.60;;;9.30;66.30;;;;;;4971453;28;20041;-74
2021/03/30 01:24:00;;;;;;;18.17;11.23;;;9.20;66.40;;;;;;4972061;28;20031;-73
2021/03/30 01:26:26;;;;;;;21.80;12.43;;;9.20;67.00;;;;;;4982388;28;20028;-74
2021/03/30 01:29:00;;;;;;;17.40;11.27;;;9.10;67.00;;;;;;4988627;28;20069;-74
2021/03/30 01:31:32;;;;;;;19.43;11.20;;;9.10;67.50;;;;;;4988862;28;20042;-73
2021/03/30 01:34:00;;;;;;;20.47;12.33;;;9.00;67.60;;;;;;4990599;28;20382;-73
2021/03/30 01:36:28;;;;;;;21.90;12.30;;;9.00;67.90;;;;;;4969234;28;20046;-76
2021/03/30 01:38:55;;;;;;;23.23;12.50;;;8.90;67.90;;;;;;4971186;28;20035;-73
2021/03/30 01:41:23;;;;;;;19.40;12.33;;;8.90;67.80;;;;;;4971282;28;20558;-73
2021/03/30 01:43:49;;;;;;;18.43;11.20;;;8.90;68.10;;;;;;4970320;28;20031;-73
2021/03/30 01:46:16;;;;;;;18.50;10.60;;;8.90;68.10;;;;;;4976328;28;20414;-73
2021/03/30 01:48:43;;;;;;;20.97;12.23;;;8.90;68.20;;;;;;4988389;28;20042;-74
2021/03/30 01:51:11;;;;;;;19.07;11.00;;;8.90;68.50;;;;;;4988720;28;20026;-74
2021/03/30 01:53:39;;;;;;;23.20;12.37;;;8.90;68.70;;;;;;4990336;28;20416;-74
2021/03/30 01:56:06;;;;;;;17.90;11.10;;;8.80;68.90;;;;;;4987225;28;20054;-73
2021/03/30 01:58:32;;;;;;;21.73;12.63;;;8.80;69.20;;;;;;4973725;28;20030;-79
2021/03/30 02:01:00;;;;;;;19.33;10.63;;;8.80;69.30;;;;;;4992278;28;20120;-76
2021/03/30 02:03:26;;;;;;;15.20;10.80;;;8.80;69.40;;;;;;4994647;28;20038;-73
2021/03/30 02:05:52;;;;;;;19.17;11.03;;;8.80;69.40;;;;;;4991448;28;20026;-73
2021/03/30 02:08:19;;;;;;;19.27;10.53;;;8.70;69.20;;;;;;4974663;28;20495;-73
2021/03/30 02:10:49;;;;;;;16.30;10.63;;;8.70;69.30;;;;;;4973745;28;20071;-74
2021/03/30 02:13:42;;;;;;;18.07;10.53;;;8.70;69.60;;;;;;4993869;28;20074;-75
2021/03/30 02:16:22;;;;;;;18.00;10.90;;;8.70;69.90;;;;;;4983513;28;20134;-73
2021/03/30 02:19:05;;;;;;;21.98;11.30;;;8.60;69.90;;;;;;4995015;28;20054;-73
2021/03/30 02:21:35;;;;;;;;;;;8.60;70.00;;;;;;4995812;28;20132;-74
2021/03/30 02:24:10;;;;;;;21.50;10.57;;;8.50;70.50;;;;;;5012846;28;19956;-73
2021/03/30 02:26:37;;;;;;;17.47;10.27;;;8.50;70.50;;;;;;5005809;28;20619;-78
2021/03/30 02:29:07;;;;;;;18.30;10.70;;;8.50;70.80;;;;;;4995779;28;20039;-73
2021/03/30 02:31:34;;;;;;;17.20;10.83;;;8.50;70.90;;;;;;4979497;28;20066;-74
2021/03/30 02:34:05;;;;;;;18.13;11.20;;;8.50;70.80;;;;;;4994933;28;20030;-73
2021/03/30 02:36:31;;;;;;;17.10;11.17;;;8.40;71.00;;;;;;4989364;28;20034;-73
2021/03/30 02:39:01;;;;;;;18.50;10.47;;;8.40;71.20;;;;;;4975561;28;20038;-74
2021/03/30 02:41:29;;;;;;;17.10;10.47;;;8.40;71.30;;;;;;4994696;28;20463;-74
2021/03/30 02:43:57;;;;;;;16.30;10.23;;;8.40;71.40;;;;;;4973095;28;20030;-73
2021/03/30 02:46:24;;;;;;;17.63;10.83;;;8.40;71.50;;;;;;4995286;28;20065;-73
2021/03/30 02:48:51;;;;;;;19.43;11.60;;;8.40;71.50;;;;;;4994866;28;20041;-73
2021/03/30 02:51:17;;;;;;;17.83;10.40;;;8.40;71.30;;;;;;5012496;28;20029;-73
2021/03/30 02:53:44;;;;;;;16.27;10.10;;;8.40;71.30;;;;;;5000672;28;20045;-78
2021/03/30 02:56:09;;;;;;;16.37;10.47;;;8.30;71.20;;;;;;4993250;28;20033;-73
2021/03/30 02:58:36;;;;;;;17.67;11.27;;;8.20;71.30;;;;;;4975923;28;20030;-73
2021/03/30 03:01:04;;;;;;;15.57;10.03;;;8.20;71.40;;;;;;5000261;28;20026;-73
2021/03/30 03:03:31;;;;;;;16.13;9.77;;;8.20;71.50;;;;;;5003066;28;20069;-74
2021/03/30 03:05:59;;;;;;;20.90;10.10;;;8.20;71.50;;;;;;4979606;28;20037;-73
2021/03/30 03:08:27;;;;;;;19.17;10.20;;;8.20;71.50;;;;;;5011296;28;20057;-74
2021/03/30 03:10:53;;;;;;;16.37;9.67;;;8.10;71.50;;;;;;5011821;28;20033;-73
2021/03/30 03:13:20;;;;;;;17.27;9.43;;;8.10;71.40;;;;;;5012414;28;20621;-73
2021/03/30 03:15:46;;;;;;;13.47;9.20;;;8.10;71.30;;;;;;5011044;28;20113;-77
2021/03/30 03:18:14;;;;;;;15.43;9.37;;;8.10;71.60;;;;;;4980227;28;20126;-75
2021/03/30 03:20:44;;;;;;;16.67;9.43;;;8.20;71.60;;;;;;4993006;28;20409;-73
2021/03/30 03:23:10;;;;;;;17.17;9.17;;;8.20;71.80;;;;;;5012069;28;20064;-73
2021/03/30 03:25:37;;;;;;;17.00;9.07;;;8.10;71.70;;;;;;5011249;28;20424;-74
2021/03/30 03:28:03;;;;;;;15.33;8.77;;;8.10;71.80;;;;;;5011434;28;20038;-73
2021/03/30 03:30:28;;;;;;;16.17;8.67;;;8.10;71.70;;;;;;5012302;28;20034;-73
2021/03/30 03:33:07;;;;;;;17.57;9.40;;;8.00;71.80;;;;;;4974777;28;20458;-73
2021/03/30 03:35:33;;;;;;;17.07;9.00;;;8.10;71.60;;;;;;4993568;28;20030;-74
2021/03/30 03:38:01;;;;;;;16.80;8.30;;;8.10;71.70;;;;;;4986313;28;20034;-74
2021/03/30 03:40:27;;;;;;;15.17;9.17;;;8.10;71.90;;;;;;4995026;28;20037;-73
2021/03/30 03:42:52;;;;;;;15.53;8.50;;;8.10;71.70;;;;;;5011030;28;20477;-74
2021/03/30 03:45:18;;;;;;;15.13;8.23;;;8.10;71.70;;;;;;5011983;28;20033;-75
2021/03/30 03:47:44;;;;;;;15.93;9.50;;;8.20;72.10;;;;;;4976275;28;20449;-74
2021/03/30 03:50:10;;;;;;;17.40;9.50;;;8.20;71.90;;;;;;4991601;28;20092;-73
2021/03/30 03:52:43;;;;;;;16.80;8.77;;;8.20;72.10;;;;;;4991988;28;20038;-74
2021/03/30 03:55:09;;;;;;;;;;;8.20;72.20;;;;;;5011079;28;20040;-73
2021/03/30 03:57:41;;;;;;;14.93;9.20;;;8.20;72.20;;;;;;5010332;28;19940;-74
2021/03/30 04:00:07;;;;;;;16.10;9.03;;;8.10;71.70;;;;;;4992938;28;20026;-73
2021/03/30 04:02:43;;;;;;;14.17;8.83;;;8.00;71.70;;;;;;5011442;28;20163;-73
2021/03/30 04:05:13;;;;;;;17.80;9.50;;;8.00;72.30;;;;;;5011479;28;20064;-73
2021/03/30 04:07:45;;;;;;;15.10;8.80;;;8.00;72.40;;;;;;4995166;28;20113;-73
2021/03/30 04:10:11;;;;;;;16.27;8.87;;;7.90;72.40;;;;;;4973615;28;20498;-73
2021/03/30 04:12:40;;;;;;;13.67;8.80;;;7.90;72.80;;;;;;4992485;28;20510;-73
2021/03/30 04:15:07;;;;;;;14.77;9.20;;;8.00;72.90;;;;;;4976945;28;20486;-74
2021/03/30 04:17:33;;;;;;;17.03;9.03;;;8.00;72.80;;;;;;5010933;28;20103;-73
2021/03/30 04:20:04;;;;;;;16.33;9.20;;;8.00;72.70;;;;;;5010473;28;20033;-73
2021/03/30 04:22:29;;;;;;;16.27;9.27;;;7.90;72.20;;;;;;4994411;28;20117;-73
2021/03/30 04:24:55;;;;;;;15.00;9.40;;;7.80;72.50;;;;;;5003120;28;20105;-75
2021/03/30 04:27:21;;;;;;;15.83;8.97;;;7.70;72.60;;;;;;4991322;28;20042;-73
2021/03/30 04:29:46;;;;;;;15.03;8.30;;;7.70;72.90;;;;;;4973867;28;20031;-73
2021/03/30 04:32:12;;;;;;;15.70;9.00;;;7.70;73.10;;;;;;4979577;28;20030;-73
2021/03/30 04:34:37;;;;;;;18.57;9.00;;;7.70;73.00;;;;;;5010613;28;20030;-73
2021/03/30 04:37:04;;;;;;;15.20;8.63;;;7.60;72.60;;;;;;5009529;28;20454;-75
2021/03/30 04:39:29;;;;;;;16.13;8.97;;;7.50;72.70;;;;;;5010859;28;20091;-73
2021/03/30 04:41:55;;;;;;;13.53;8.37;;;7.60;72.90;;;;;;4992725;28;20423;-79
2021/03/30 04:44:21;;;;;;;15.27;8.37;;;7.60;72.70;;;;;;5008731;28;20858;-74
2021/03/30 04:46:46;;;;;;;15.77;9.07;;;7.60;72.70;;;;;;4991539;28;20396;-73
2021/03/30 04:49:12;;;;;;;15.53;8.30;;;7.70;72.90;;;;;;4973200;28;20238;-72
2021/03/30 04:51:38;;;;;;;12.77;8.40;;;7.70;72.80;;;;;;4991126;28;20120;-73
2021/03/30 04:54:03;;;;;;;14.13;8.43;;;7.60;72.60;;;;;;5003229;28;20398;-75
2021/03/30 04:56:29;;;;;;;16.20;9.00;;;7.50;72.60;;;;;;4992566;28;20034;-73
2021/03/30 04:58:55;;;;;;;13.90;8.50;;;7.50;72.60;;;;;;4993045;28;20040;-79
2021/03/30 05:01:20;;;;;;;16.57;8.87;;;7.40;72.90;;;;;;4992237;28;20501;-73
2021/03/30 05:03:46;;;;;;;15.00;8.87;;;7.30;73.10;;;;;;5010539;28;20038;-74
2021/03/30 05:06:11;;;;;;;15.50;8.47;;;7.30;73.20;;;;;;5009552;28;20033;-74
2021/03/30 05:08:37;;;;;;;18.10;8.73;;;7.30;73.30;;;;;;4993328;28;20088;-74
2021/03/30 05:11:03;;;;;;;20.53;8.77;;;7.30;73.40;;;;;;5009080;28;20046;-73
2021/03/30 05:13:28;;;;;;;13.63;8.10;;;7.40;73.50;;;;;;5010192;28;20022;-73
2021/03/30 05:15:54;;;;;;;18.17;8.70;;;7.50;73.60;;;;;;4973042;28;20038;-73
2021/03/30 05:18:20;;;;;;;15.13;8.27;;;7.50;73.70;;;;;;4990156;28;20105;-73
2021/03/30 05:20:45;;;;;;;16.57;8.70;;;7.60;73.60;;;;;;4973356;28;20366;-73
2021/03/30 05:23:11;;;;;;;19.47;9.47;;;7.50;73.40;;;;;;4989329;28;20542;-73
2021/03/30 05:25:37;;;;;;;15.23;9.33;;;7.50;73.20;;;;;;4990947;28;20062;-72
2021/03/30 05:28:04;;;;;;;17.53;8.70;;;7.50;73.30;;;;;;4989932;28;20138;-73
2021/03/30 05:30:30;;;;;;;18.83;8.50;;;7.60;73.70;;;;;;4990950;28;20117;-72
2021/03/30 05:32:56;;;;;;;17.37;9.23;;;7.70;74.40;;;;;;4989184;28;20585;-72
2021/03/30 05:35:21;;;;;;;17.03;8.13;;;7.90;74.60;;;;;;5011858;28;20298;-73
2021/03/30 05:37:47;;;;;;;14.30;8.10;;;8.10;73.90;;;;;;5013774;28;20034;-73
2021/03/30 05:40:14;;;;;;;13.47;9.13;;;8.50;72.90;;;;;;5013325;28;20414;-73
2021/03/30 05:42:40;;;;;;;15.90;8.70;;;9.00;71.10;;;;;;5014360;28;20026;-76
2021/03/30 05:45:07;;;;;;;15.37;8.97;;;9.60;68.90;;;;;;4988688;28;20045;-73
2021/03/30 05:47:34;;;;;;;18.03;7.80;;;10.20;66.50;;;;;;4976619;28;20042;-72
2021/03/30 05:50:01;;;;;;;14.20;7.60;;;10.80;64.60;;;;;;4994545;28;20034;-78
2021/03/30 05:53:17;;;;;;;14.47;8.13;;;11.50;62.80;;;;;;4986468;28;20061;-75
2021/03/30 05:55:25;;;;;;;16.53;8.20;;;12.20;61.10;;;;;;5002120;28;20471;-74
2021/03/30 05:57:53;;;;;;;11.57;7.90;;;12.80;58.70;;;;;;5013741;28;20092;-73
2021/03/30 06:00:33;;;;;;;15.33;8.47;;;13.30;55.90;;;;;;5013100;28;20144;-73
2021/03/30 06:03:09;;;;;;;12.97;7.73;;;13.80;54.30;;;;;;4984057;28;20072;-73
2021/03/30 06:05:35;;;;;;;12.10;8.17;;;14.30;52.20;;;;;;5013262;28;20466;-73
2021/03/30 06:08:02;;;;;;;12.70;7.97;;;14.80;50.70;;;;;;4995913;28;20116;-73
2021/03/30 06:10:30;;;;;;;11.67;6.93;;;15.20;49.10;;;;;;4995757;28;20046;-74
2021/03/30 06:12:57;;;;;;;11.75;6.93;;;15.70;47.60;;;;;;5013246;28;20049;-74
2021/03/30 06:15:30;;;;;;;12.80;7.43;;;16.10;46.30;;;;;;5004282;28;20034;-75
2021/03/30 06:17:57;;;;;;;14.95;7.75;;;16.50;45.20;;;;;;4993868;28;20113;-74
2021/03/30 06:20:36;;;;;;;12.25;7.28;;;16.80;44.30;;;;;;5010341;28;20072;-73
2021/03/30 06:23:04;;;;;;;14.18;6.90;;;17.00;43.50;;;;;;5012736;28;20038;-74
2021/03/30 06:25:33;;;;;;;8.40;5.57;;;17.20;42.70;;;;;;5004265;28;20056;-75
2021/03/30 06:28:18;;;;;;;10.32;6.60;;;17.50;42.70;;;;;;4993594;28;20066;-73
2021/03/30 06:31:07;;;;;;;13.32;6.50;;;17.80;40.40;;;;;;4994070;28;20033;-74
2021/03/30 06:33:44;;;;;;;10.18;6.00;;;17.70;39.70;;;;;;4976155;28;20030;-74
2021/03/30 06:36:15;;;;;;;9.93;6.53;;;17.80;39.30;;;;;;5007144;28;20753;-74
2021/03/30 06:38:57;;;;;;;11.35;6.32;;;18.00;39.10;;;;;;4994827;28;20095;-74
2021/03/30 06:44:26;;;;;;;10.02;6.55;;;18.40;38.10;;;;;;5012440;28;20029;-76
2021/03/30 06:47:14;;;;;;;13.52;6.82;;;18.60;37.90;;;;;;4993013;28;20478;-75
2021/03/30 06:49:55;;;;;;;10.38;6.22;;;19.00;37.20;;;;;;4993986;28;20023;-74
2021/03/30 06:52:25;;;;;;;12.43;7.05;;;19.30;36.60;;;;;;4992725;28;20026;-73
2021/03/30 06:54:51;;;;;;;10.15;6.75;;;19.40;36.00;;;;;;4998440;28;20031;-73
2021/03/30 06:57:36;;;;;;;10.48;7.20;;;19.60;35.80;;;;;;4992335;28;20027;-74
2021/03/30 07:00:27;;;;;;;9.45;6.50;;;19.90;35.50;;;;;;4993807;28;20160;-74
2021/03/30 07:02:59;;;;;;;7.55;5.95;;;20.20;35.50;;;;;;4982724;28;20302;-74
2021/03/30 07:05:38;;;;;;;9.82;7.03;;;20.20;35.80;;;;;;4992597;28;20474;-74
2021/03/30 07:08:05;;;;;;;11.93;6.88;;;20.40;35.20;;;;;;5007478;28;20032;-74
2021/03/30 07:10:37;;;;;;;13.95;7.38;;;20.70;35.50;;;;;;5007695;28;20038;-74
2021/03/30 07:13:04;;;;;;;10.65;6.97;;;21.10;34.10;;;;;;4994792;28;20095;-73
2021/03/30 07:15:29;;;;;;;10.00;6.90;;;21.40;33.70;;;;;;4993452;28;20030;-74
2021/03/30 07:18:04;;;;;;;12.32;6.85;;;21.50;33.60;;;;;;4961593;28;20040;-73
2021/03/30 07:20:46;;;;;;;12.10;7.45;;;21.70;33.40;;;;;;5010494;28;20030;-73
2021/03/30 07:23:20;;;;;;;10.48;7.18;;;22.00;32.60;;;;;;4995931;28;20022;-73
2021/03/30 07:25:54;;;;;;;15.77;7.70;;;22.30;32.50;;;;;;5010716;28;20489;-73
2021/03/30 07:28:23;;;;;;;13.60;7.78;;;22.50;31.50;;;;;;5004040;28;20029;-72
2021/03/30 07:30:54;;;;;;;12.63;6.65;;;22.50;31.60;;;;;;4988336;28;20034;-75
2021/03/30 07:33:53;;;;;;;14.48;7.40;;;22.60;31.10;;;;;;4990673;28;20425;-72
2021/03/30 07:36:21;;;;;;;13.50;8.63;;;22.70;30.70;;;;;;4960832;28;20393;-79
2021/03/30 07:38:52;;;;;;;13.90;8.45;;;22.90;30.80;;;;;;4992256;28;20034;-73
2021/03/30 07:41:19;;;;;;;13.02;8.18;;;22.90;30.30;;;;;;4990501;28;20118;-78
2021/03/30 07:43:47;;;;;;;17.85;10.60;;;23.00;30.90;;;;;;5011155;28;20137;-78
2021/03/30 07:46:14;;;;;;;15.05;11.38;;;23.30;31.40;;;;;;4992521;28;20038;-74
2021/03/30 07:48:40;;;;;;;17.15;12.55;;;23.40;30.20;;;;;;5010383;28;20649;-73
2021/03/30 07:51:19;;;;;;;17.27;11.82;;;23.40;31.70;;;;;;4992997;28;20038;-74
2021/03/30 07:53:53;;;;;;;16.67;11.70;;;23.80;30.70;;;;;;4983098;28;20036;-73
2021/03/30 07:56:21;;;;;;;18.85;10.85;;;23.90;30.30;;;;;;4995095;28;20030;-80
2021/03/30 07:58:47;;;;;;;12.40;9.05;;;24.30;30.30;;;;;;5011174;28;20022;-74
2021/03/30 08:01:14;;;;;;;13.77;9.57;;;24.60;29.90;;;;;;5009335;28;20033;-73
2021/03/30 08:03:44;;;;;;;20.52;10.65;;;24.40;29.60;;;;;;5001761;28;20053;-76
2021/03/30 08:06:17;;;;;;;13.77;8.95;;;24.50;30.20;;;;;;5003468;28;20139;-75
2021/03/30 08:09:06;;;;;;;17.63;10.40;;;24.80;30.10;;;;;;5018112;28;20022;-74
2021/03/30 08:14:08;;;;;;;13.32;9.70;;;25.70;28.70;;;;;;5009018;28;20049;-75
2021/03/30 08:16:36;;;;;;;15.82;9.52;;;25.80;27.50;;;;;;4998504;28;20041;-74
2021/03/30 08:19:07;;;;;;;13.57;9.07;;;25.90;27.90;;;;;;5002533;28;20088;-75
2021/03/30 08:21:57;;;;;;;14.02;9.77;;;26.00;27.80;;;;;;4982839;28;20552;-74
2021/03/30 08:24:47;;;;;;;18.90;9.00;;;26.30;28.10;;;;;;5008396;28;20026;-80
2021/03/30 08:27:31;;;;;;;12.63;8.52;;;26.70;28.00;;;;;;4991931;28;20074;-74
2021/03/30 08:30:03;;;;;;;16.42;10.00;;;26.90;27.10;;;;;;5003956;28;20092;-79
2021/03/30 08:32:32;;;;;;;13.80;9.63;;;26.80;26.40;;;;;;4988313;28;20044;-75
2021/03/30 08:34:58;;;;;;;14.25;9.75;;;26.50;26.60;;;;;;5010305;28;20026;-74
2021/03/30 08:37:23;;;;;;;14.05;9.40;;;26.50;26.80;;;;;;5004167;28;20042;-80
2021/03/30 08:39:50;;;;;;;17.58;10.80;;;26.70;27.60;;;;;;4999407;28;20033;-74
2021/03/30 08:42:18;;;;;;;14.60;10.43;;;26.80;27.20;;;;;;4999699;28;20026;-74
2021/03/30 08:44:56;;;;;;;14.30;10.05;;;26.90;28.30;;;;;;4999137;28;19929;-75
2021/03/30 08:47:36;;;;;;;15.02;9.68;;;27.40;28.30;;;;;;5002406;28;20061;-73
2021/03/30 08:50:27;;;;;;;17.85;10.77;;;28.00;28.20;;;;;;4984983;28;20107;-74
2021/03/30 08:52:56;;;;;;;17.20;11.07;;;28.40;27.50;;;;;;5001629;28;20478;-74
2021/03/30 08:55:41;;;;;;;17.90;12.10;;;29.00;26.90;;;;;;5002906;28;20053;-75
2021/03/30 08:58:08;;;;;;;20.20;14.05;;;29.00;26.50;;;;;;4982182;28;20494;-75
2021/03/30 09:00:34;;;;;;;19.25;12.15;;;28.80;25.60;;;;;;5004607;28;20485;-76
2021/03/30 09:03:05;;;;;;;17.77;12.23;;;28.30;25.90;;;;;;4992183;28;20116;-75
2021/03/30 09:05:41;;;;;;;20.25;12.40;;;28.30;27.00;;;;;;5005458;28;20014;-80
2021/03/30 09:08:10;;;;;;;18.55;13.07;;;28.90;26.90;;;;;;5000014;28;20035;-74
2021/03/30 09:10:36;;;;;;;19.33;13.05;;;29.40;26.30;;;;;;4999869;28;20478;-76
2021/03/30 09:13:11;;;;;;;16.65;12.65;;;29.80;26.40;;;;;;4985171;28;20600;-75
2021/03/30 09:15:37;;;;;;;17.70;12.38;;;30.50;26.10;;;;;;5001587;28;20106;-75
2021/03/30 09:18:04;;;;;;;20.88;14.57;;;30.40;25.60;;;;;;4999657;28;20116;-76
2021/03/30 09:20:34;;;;;;;20.00;15.77;;;30.40;25.80;;;;;;4998856;28;20030;-79
2021/03/30 09:23:13;;;;;;;21.25;15.15;;;30.20;25.10;;;;;;4998307;28;20022;-74
2021/03/30 09:25:43;;;;;;;18.48;13.30;;;29.80;25.40;;;;;;5003170;28;20034;-75
2021/03/30 09:28:20;;;;;;;19.63;14.50;;;30.00;26.10;;;;;;4984614;28;20046;-80
2021/03/30 09:30:47;;;;;;;24.42;14.68;;;30.20;25.80;;;;;;5002323;28;20092;-75
2021/03/30 09:33:14;;;;;;;20.88;15.60;;;30.50;25.70;;;;;;5000089;28;20030;-74
2021/03/30 09:35:41;;;;;;;22.63;17.92;;;30.60;25.50;;;;;;4998478;28;20017;-75
2021/03/30 09:38:07;;;;;;;21.65;16.25;;;30.40;24.70;;;;;;4997280;28;20394;-78
2021/03/30 09:40:40;;;;;;;25.10;17.50;;;30.10;25.10;;;;;;4996967;28;20037;-81
2021/03/30 09:43:08;;;;;;;22.08;18.88;;;29.90;25.30;;;;;;4982067;28;20481;-78
2021/03/30 09:45:35;;;;;;;24.23;18.75;;;29.80;24.80;;;;;;4997889;28;20486;-80
2021/03/30 09:48:05;;;;;;;23.88;18.85;;;29.60;24.90;;;;;;4996601;28;20042;-77
2021/03/30 09:50:31;;;;;;;24.17;19.02;;;29.50;25.20;;;;;;4980322;28;20117;-77
2021/03/30 09:53:04;;;;;;;23.42;18.25;;;29.50;25.40;;;;;;4997416;28;20034;-76
2021/03/30 09:55:35;;;;;;;24.10;17.80;;;29.90;25.60;;;;;;4998357;28;20142;-75
2021/03/30 09:58:04;;;;;;;22.83;19.15;;;29.90;25.10;;;;;;4999518;28;20030;-78
2021/03/30 10:00:32;;;;;;;22.75;18.30;;;30.20;25.90;;;;;;4997185;28;20041;-79
2021/03/30 10:02:59;;;;;;;22.95;18.42;;;30.20;25.60;;;;;;4996583;28;20025;-75
2021/03/30 10:05:32;;;;;;;26.73;19.70;;;30.10;25.20;;;;;;4996933;28;20061;-74
2021/03/30 10:07:58;;;;;;;20.83;18.27;;;30.10;25.10;;;;;;4996031;28;20028;-74
2021/03/30 10:10:23;;;;;;;21.65;17.35;;;29.90;24.60;;;;;;4996540;28;20030;-75
2021/03/30 10:13:04;;;;;;;24.65;18.40;;;29.80;24.80;;;;;;4963765;28;20136;-75
2021/03/30 10:15:40;;;;;;;22.13;16.27;;;29.50;24.90;;;;;;4996105;28;20120;-77
2021/03/30 10:18:10;;;;;;;20.58;15.60;;;28.80;24.20;;;;;;5005268;28;20049;-74
2021/03/30 10:20:47;;;;;;;18.60;14.77;;;28.10;24.40;;;;;;5009600;28;20462;-74
2021/03/30 10:23:22;;;;;;;19.90;15.07;;;27.60;25.70;;;;;;5011160;28;20044;-76
2021/03/30 10:25:49;;;;;;;19.95;15.18;;;27.90;25.40;;;;;;5009689;28;20036;-74
2021/03/30 10:28:26;;;;;;;21.33;14.98;;;28.40;25.40;;;;;;5012047;28;20064;-74
2021/03/30 10:30:59;;;;;;;19.20;14.13;;;28.30;24.60;;;;;;5008690;28;20041;-74
2021/03/30 10:33:41;;;;;;;19.10;14.90;;;27.90;24.70;;;;;;5012729;28;20030;-76
2021/03/30 10:36:14;;;;;;;19.38;14.52;;;27.30;25.10;;;;;;5011406;28;20022;-74
2021/03/30 10:38:59;;;;;;;20.55;13.93;;;27.50;25.30;;;;;;4995343;28;20046;-74
2021/03/30 10:41:32;;;;;;;19.63;13.57;;;27.50;25.30;;;;;;4993800;28;20033;-73
2021/03/30 10:43:58;;;;;;;21.65;14.07;;;27.70;25.60;;;;;;4993420;28;20408;-72
2021/03/30 10:46:23;;;;;;;18.77;13.82;;;27.80;25.40;;;;;;4994068;28;20030;-73
2021/03/30 10:49:04;;;;;;;19.40;12.88;;;27.80;25.60;;;;;;5010959;28;20022;-74
2021/03/30 10:51:35;;;;;;;22.42;15.32;;;28.10;25.70;;;;;;5011802;28;20200;-73
2021/03/30 10:54:03;;;;;;;18.65;14.15;;;28.40;25.50;;;;;;5011469;28;20062;-74
2021/03/30 10:56:29;;;;;;;20.30;13.77;;;28.10;24.60;;;;;;5011103;28;20036;-73
2021/03/30 10:58:55;;;;;;;20.48;14.25;;;27.60;25.90;;;;;;5012036;28;20041;-73
2021/03/30 11:01:21;;;;;;;18.48;14.10;;;27.80;25.50;;;;;;5011535;28;20052;-74
2021/03/30 11:03:47;;;;;;;16.98;13.23;;;27.60;24.80;;;;;;5012248;28;20033;-80
2021/03/30 11:06:12;;;;;;;16.70;12.95;;;27.40;23.90;;;;;;5011538;28;20092;-75
2021/03/30 11:08:38;;;;;;;21.58;14.60;;;27.20;24.60;;;;;;5011318;28;20044;-75
2021/03/30 11:11:04;;;;;;;22.83;14.50;;;27.10;25.10;;;;;;4992969;28;20114;-74
2021/03/30 11:13:29;;;;;;;20.35;14.15;;;27.30;24.90;;;;;;5012061;28;20387;-74
2021/03/30 11:15:55;;;;;;;20.08;15.10;;;27.30;24.80;;;;;;5008983;28;20030;-74
2021/03/30 11:18:21;;;;;;;24.20;15.80;;;27.70;25.70;;;;;;4994713;28;20083;-74
2021/03/30 11:20:46;;;;;;;22.38;13.82;;;27.80;25.50;;;;;;5009137;28;20141;-80
2021/03/30 11:23:12;;;;;;;18.90;13.32;;;27.90;25.10;;;;;;4993130;28;20129;-74
2021/03/30 11:25:38;;;;;;;18.95;13.40;;;28.10;25.30;;;;;;5010209;28;20037;-75
2021/03/30 11:28:08;;;;;;;21.02;14.55;;;28.20;24.90;;;;;;5009968;28;20034;-76
2021/03/30 11:30:47;;;;;;;20.83;15.05;;;28.40;25.20;;;;;;5010798;28;20034;-74
2021/03/30 11:33:20;;;;;;;16.65;12.70;;;28.50;24.20;;;;;;4978911;28;20030;-74
2021/03/30 11:35:51;;;;;;;18.70;14.13;;;28.40;23.90;;;;;;4994508;28;20034;-74
2021/03/30 11:38:16;;;;;;;19.13;13.85;;;28.00;23.30;;;;;;5010702;28;20049;-73
2021/03/30 11:40:43;;;;;;;18.58;13.38;;;27.40;23.40;;;;;;5011313;28;20030;-74
2021/03/30 11:43:08;;;;;;;17.75;13.27;;;27.20;24.20;;;;;;5010853;28;20030;-77
2021/03/30 11:45:35;;;;;;;18.95;13.00;;;27.10;24.30;;;;;;4993244;28;20484;-73
2021/03/30 11:48:01;;;;;;;19.42;13.52;;;27.20;23.90;;;;;;5010713;28;20466;-74
2021/03/30 11:50:31;;;;;;;18.15;13.25;;;27.20;24.10;;;;;;5010229;28;20036;-74
2021/03/30 11:52:57;;;;;;;21.38;14.45;;;27.50;24.20;;;;;;4993135;28;20042;-73
2021/03/30 11:55:24;;;;;;;22.13;15.85;;;27.60;24.10;;;;;;5011122;28;20041;-75
2021/03/30 11:57:50;;;;;;;22.25;15.63;;;27.50;24.40;;;;;;5010980;28;20041;-77
2021/03/30 12:00:17;;;;;;;22.63;15.73;;;27.20;24.50;;;;;;4997057;28;20034;-74
2021/03/30 12:02:44;;;;;;;28.35;16.55;;;27.10;25.00;;;;;;4991827;28;20038;-74
2021/03/30 12:05:10;;;;;;;29.77;17.17;;;26.90;25.40;;;;;;5002749;28;20030;-75
2021/03/30 12:07:36;;;;;;;24.00;16.27;;;26.60;25.60;;;;;;4992704;28;20363;-74
2021/03/30 12:10:02;;;;;;;22.15;15.18;;;26.40;26.30;;;;;;4992215;28;20445;-74
2021/03/30 12:12:28;;;;;;;24.38;16.65;;;26.70;26.60;;;;;;5010855;28;20045;-74
2021/03/30 12:14:53;;;;;;;25.05;17.05;;;27.00;25.80;;;;;;5009270;28;20113;-80
2021/03/30 12:17:19;;;;;;;25.85;16.80;;;26.80;25.80;;;;;;5010876;28;20058;-75
2021/03/30 12:19:45;;;;;;;24.65;16.65;;;26.70;25.60;;;;;;4993065;28;20034;-75
2021/03/30 12:22:11;;;;;;;25.48;16.67;;;26.80;25.80;;;;;;5009459;28;20466;-74
2021/03/30 12:24:38;;;;;;;19.25;14.05;;;26.80;25.50;;;;;;5009124;28;20078;-74
2021/03/30 12:27:09;;;;;;;25.00;14.15;;;26.80;26.30;;;;;;5009912;28;20030;-73
2021/03/30 12:29:35;;;;;;;21.10;14.38;;;27.00;26.40;;;;;;4984313;28;20022;-72
2021/03/30 12:32:01;;;;;;;22.42;15.52;;;27.50;25.50;;;;;;4991747;28;20037;-74
2021/03/30 12:34:27;;;;;;;25.63;16.55;;;27.60;25.30;;;;;;5011022;28;20037;-74
2021/03/30 12:36:53;;;;;;;23.70;15.15;;;27.50;25.00;;;;;;5009069;28;20038;-73
2021/03/30 12:39:19;;;;;;;25.42;16.50;;;27.00;25.20;;;;;;5007993;28;20033;-73
2021/03/30 12:41:45;;;;;;;26.05;16.50;;;26.70;25.60;;;;;;5009669;28;20029;-73
2021/03/30 12:44:11;;;;;;;26.88;15.90;;;26.60;25.60;;;;;;4992059;28;20061;-74
2021/03/30 12:46:37;;;;;;;25.15;15.77;;;26.20;25.30;;;;;;4990380;28;20066;-74
2021/03/30 12:49:03;;;;;;;24.40;15.80;;;25.80;25.60;;;;;;5009830;28;20030;-74
2021/03/30 12:51:28;;;;;;;24.92;15.10;;;25.90;26.30;;;;;;5010251;28;20058;-76
2021/03/30 12:53:56;;;;;;;23.13;15.23;;;26.20;26.30;;;;;;4993087;28;20057;-73